Time;durP1;ratioP1;P1;durP2;ratioP2;P2;SDS_P1;SDS_P2;PMS_P1;PMS_P2;Temp;Humidity;BMP_temperature;BMP_pressure;BME280_temperature;BME280_humidity;BME280_pressure;Samples;Min_cycle;Max_cycle;Signal;HPM_P1;HPM_P2
2022/08/04 00:01:02;;;;;;;10.85;4.57;;;;;;;;;;5029927;28;20053;-64
2022/08/04 00:03:32;;;;;;;6.70;3.80;;;;;;;;;;5028047;28;20053;-64
2022/08/04 00:06:08;;;;;;;9.37;3.87;;;;;;;;;;5031945;28;20026;-64
2022/08/04 00:08:41;;;;;;;9.23;4.85;;;;;;;;;;5028735;28;20037;-65
2022/08/04 00:11:08;;;;;;;9.00;4.47;;;;;;;;;;5032188;28;20029;-64
2022/08/04 00:13:38;;;;;;;10.57;5.43;;;;;;;;;;5011305;28;20065;-64
2022/08/04 00:16:05;;;;;;;8.33;4.07;;;;;;;;;;5023749;28;20038;-65
2022/08/04 00:18:39;;;;;;;10.25;4.88;;;;;;;;;;5026101;28;20383;-64
2022/08/04 00:21:06;;;;;;;9.00;4.70;;;;;;;;;;5028534;28;20556;-64
2022/08/04 00:23:35;;;;;;;8.10;4.25;;;;;;;;;;5012228;28;20046;-64
2022/08/04 00:26:02;;;;;;;11.00;4.68;;;;;;;;;;5030902;28;20580;-64
2022/08/04 00:28:29;;;;;;;7.38;4.78;;;;;;;;;;5029924;28;20042;-64
2022/08/04 00:30:55;;;;;;;11.18;4.85;;;;;;;;;;5031006;28;20033;-64
2022/08/04 00:33:21;;;;;;;7.32;4.55;;;;;;;;;;5026705;28;20038;-64
2022/08/04 00:35:48;;;;;;;10.50;4.93;;;;;;;;;;5031739;28;20041;-64
2022/08/04 00:38:16;;;;;;;9.35;4.75;;;;;;;;;;5012137;28;20045;-64
2022/08/04 00:40:48;;;;;;;8.05;5.10;;;;;;;;;;5028607;28;20450;-64
2022/08/04 00:43:34;;;;;;;9.35;4.80;;;;;;;;;;5030330;28;20041;-64
2022/08/04 00:46:16;;;;;;;9.73;4.68;;;;;;;;;;5030307;28;20120;-64
2022/08/04 00:49:08;;;;;;;8.38;4.57;;;;;;;;;;5024563;28;20037;-64
2022/08/04 00:51:43;;;;;;;9.57;4.93;;;;;;;;;;5009504;28;20046;-64
2022/08/04 00:54:28;;;;;;;11.07;4.65;;;;;;;;;;5027423;28;20068;-64
2022/08/04 00:57:03;;;;;;;11.07;4.88;;;;;;;;;;5024907;28;20442;-64
2022/08/04 00:59:48;;;;;;;12.77;5.85;;;;;;;;;;5028347;28;20041;-64
2022/08/04 01:02:24;;;;;;;9.68;5.55;;;;;;;;;;5028511;28;20478;-64
2022/08/04 01:05:03;;;;;;;10.82;5.03;;;;;;;;;;5023797;28;20120;-64
2022/08/04 01:07:32;;;;;;;10.27;5.35;;;;;;;;;;5028523;28;20499;-64
2022/08/04 01:10:01;;;;;;;8.65;4.70;;;;;;;;;;5025289;28;20044;-64
2022/08/04 01:12:36;;;;;;;10.23;5.05;;;;;;;;;;5010258;28;20037;-64
2022/08/04 01:15:34;;;;;;;9.50;5.20;;;;;;;;;;5030486;28;20044;-64
2022/08/04 01:18:03;;;;;;;13.02;6.00;;;;;;;;;;4989230;28;20041;-64
2022/08/04 01:20:33;;;;;;;12.52;5.88;;;;;;;;;;5029631;28;20038;-64
2022/08/04 01:23:17;;;;;;;11.45;5.55;;;;;;;;;;5027826;28;20045;-64
2022/08/04 01:25:43;;;;;;;9.82;5.20;;;;;;;;;;5021963;28;20045;-64
2022/08/04 01:28:12;;;;;;;13.75;5.63;;;;;;;;;;5031867;28;20530;-64
2022/08/04 01:30:41;;;;;;;9.35;5.18;;;;;;;;;;5023517;28;20029;-64
2022/08/04 01:33:13;;;;;;;10.73;5.63;;;;;;;;;;5023095;28;20063;-65
2022/08/04 01:35:50;;;;;;;8.27;5.18;;;;;;;;;;5034357;28;20445;-64
2022/08/04 01:38:18;;;;;;;12.35;5.68;;;;;;;;;;5034385;28;20041;-64
2022/08/04 01:40:46;;;;;;;12.15;5.55;;;;;;;;;;5032703;28;20077;-64
2022/08/04 01:43:13;;;;;;;8.88;5.32;;;;;;;;;;5032754;28;20046;-64
2022/08/04 01:45:41;;;;;;;12.48;6.30;;;;;;;;;;5032703;28;20121;-64
2022/08/04 01:48:07;;;;;;;12.68;5.40;;;;;;;;;;5031128;28;20040;-64
2022/08/04 01:50:34;;;;;;;12.52;5.60;;;;;;;;;;5014910;28;20045;-64
2022/08/04 01:53:01;;;;;;;12.10;5.93;;;;;;;;;;5032804;28;20124;-65
2022/08/04 01:55:28;;;;;;;12.02;6.65;;;;;;;;;;5033155;28;20045;-64
2022/08/04 01:57:56;;;;;;;11.45;5.88;;;;;;;;;;5033712;28;20045;-64
2022/08/04 02:00:31;;;;;;;10.70;5.38;;;;;;;;;;5013781;28;20046;-64
2022/08/04 02:02:57;;;;;;;8.80;5.65;;;;;;;;;;5033033;28;20048;-64
2022/08/04 02:05:25;;;;;;;13.38;6.03;;;;;;;;;;5029255;28;20414;-64
2022/08/04 02:08:00;;;;;;;13.77;6.93;;;;;;;;;;5032486;28;20048;-64
2022/08/04 02:10:35;;;;;;;10.48;5.85;;;;;;;;;;5032631;28;20034;-64
2022/08/04 02:13:08;;;;;;;12.85;6.20;;;;;;;;;;5034061;28;20037;-64
2022/08/04 02:15:40;;;;;;;10.88;5.72;;;;;;;;;;5031374;28;20038;-64
2022/08/04 02:18:09;;;;;;;11.75;5.95;;;;;;;;;;5031916;28;20033;-64
2022/08/04 02:20:38;;;;;;;15.63;6.38;;;;;;;;;;5028756;28;20033;-64
2022/08/04 02:23:06;;;;;;;12.20;6.90;;;;;;;;;;5029026;28;20040;-64
2022/08/04 02:25:37;;;;;;;10.77;5.78;;;;;;;;;;5028958;28;20037;-64
2022/08/04 02:28:21;;;;;;;9.35;6.07;;;;;;;;;;5031390;28;20275;-64
2022/08/04 02:31:03;;;;;;;12.05;6.20;;;;;;;;;;5027761;28;20033;-64
2022/08/04 02:33:42;;;;;;;13.20;5.93;;;;;;;;;;5033582;28;20134;-64
2022/08/04 02:36:27;;;;;;;9.82;5.50;;;;;;;;;;5031117;28;20112;-64
2022/08/04 02:38:53;;;;;;;10.82;6.60;;;;;;;;;;5030109;28;20033;-64
2022/08/04 02:41:21;;;;;;;11.73;6.32;;;;;;;;;;5014648;28;20492;-64
2022/08/04 02:43:48;;;;;;;13.73;6.22;;;;;;;;;;5033031;28;20041;-64
2022/08/04 02:46:16;;;;;;;10.18;6.00;;;;;;;;;;5030756;28;20057;-64
2022/08/04 02:48:43;;;;;;;12.85;6.43;;;;;;;;;;5031563;28;20121;-64
2022/08/04 02:51:10;;;;;;;11.48;6.90;;;;;;;;;;5020319;28;20033;-64
2022/08/04 02:53:36;;;;;;;10.93;6.57;;;;;;;;;;5023074;28;20147;-64
2022/08/04 02:56:03;;;;;;;15.57;6.43;;;;;;;;;;5031930;28;20037;-64
2022/08/04 02:58:34;;;;;;;12.25;6.38;;;;;;;;;;5015096;28;20045;-64
2022/08/04 03:01:00;;;;;;;11.38;6.10;;;;;;;;;;5013747;28;20044;-64
2022/08/04 03:03:39;;;;;;;10.52;6.05;;;;;;;;;;5032730;28;20041;-65
2022/08/04 03:06:12;;;;;;;9.55;5.97;;;;;;;;;;5032009;28;20029;-64
2022/08/04 03:08:46;;;;;;;13.23;6.28;;;;;;;;;;5031948;28;20514;-64
2022/08/04 03:11:37;;;;;;;11.25;6.57;;;;;;;;;;4998923;28;20038;-64
2022/08/04 03:14:22;;;;;;;12.48;6.32;;;;;;;;;;5030788;28;20052;-64
2022/08/04 03:17:10;;;;;;;13.40;6.43;;;;;;;;;;5027223;28;20041;-64
2022/08/04 03:19:49;;;;;;;10.40;6.30;;;;;;;;;;5027750;28;20073;-64
2022/08/04 03:22:15;;;;;;;14.63;6.28;;;;;;;;;;5015115;28;20041;-64
2022/08/04 03:24:56;;;;;;;14.55;6.38;;;;;;;;;;5030878;28;20049;-64
2022/08/04 03:27:28;;;;;;;12.60;6.53;;;;;;;;;;5030697;28;20112;-64
2022/08/04 03:30:05;;;;;;;10.75;5.90;;;;;;;;;;5032977;28;20037;-64
2022/08/04 03:32:39;;;;;;;8.40;5.70;;;;;;;;;;5031768;28;20045;-64
2022/08/04 03:35:23;;;;;;;13.38;6.35;;;;;;;;;;5031877;28;20038;-64
2022/08/04 03:37:49;;;;;;;10.98;5.90;;;;;;;;;;5030262;28;20124;-64
2022/08/04 03:40:18;;;;;;;12.20;6.20;;;;;;;;;;5032135;28;20440;-64
2022/08/04 03:42:54;;;;;;;11.77;6.47;;;;;;;;;;5031346;28;20538;-64
2022/08/04 03:45:23;;;;;;;12.75;6.40;;;;;;;;;;5030999;28;20033;-64
2022/08/04 03:47:52;;;;;;;9.40;6.00;;;;;;;;;;5013251;28;20051;-64
2022/08/04 03:50:44;;;;;;;14.73;6.55;;;;;;;;;;5031073;28;20483;-64
2022/08/04 03:53:25;;;;;;;10.68;6.10;;;;;;;;;;4994584;28;20056;-64
2022/08/04 03:56:10;;;;;;;13.23;5.80;;;;;;;;;;5024232;28;20379;-64
2022/08/04 03:58:55;;;;;;;10.55;6.22;;;;;;;;;;5030986;28;20033;-64
2022/08/04 04:01:32;;;;;;;13.30;5.78;;;;;;;;;;5026240;28;20044;-64
2022/08/04 04:04:13;;;;;;;11.75;6.22;;;;;;;;;;5029382;28;20052;-64
2022/08/04 04:06:58;;;;;;;11.48;6.10;;;;;;;;;;5030879;28;20076;-64
2022/08/04 04:09:24;;;;;;;9.15;5.80;;;;;;;;;;5025956;28;20092;-64
2022/08/04 04:12:02;;;;;;;10.15;5.95;;;;;;;;;;5027017;28;20037;-64
2022/08/04 04:14:43;;;;;;;12.15;6.68;;;;;;;;;;5032029;28;20049;-64
2022/08/04 04:17:28;;;;;;;11.20;5.53;;;;;;;;;;5029968;28;20038;-64
2022/08/04 04:20:11;;;;;;;13.07;5.95;;;;;;;;;;5025800;28;20450;-65
2022/08/04 04:22:52;;;;;;;10.73;6.00;;;;;;;;;;5030343;28;20044;-65
2022/08/04 04:25:18;;;;;;;10.82;5.85;;;;;;;;;;5030346;28;20029;-64
2022/08/04 04:27:59;;;;;;;11.73;5.80;;;;;;;;;;5030546;28;20038;-65
2022/08/04 04:30:31;;;;;;;10.95;5.40;;;;;;;;;;5030753;28;20495;-65
2022/08/04 04:32:57;;;;;;;15.02;6.47;;;;;;;;;;5029822;28;20273;-65
2022/08/04 04:35:23;;;;;;;9.65;5.85;;;;;;;;;;5031268;28;20092;-64
2022/08/04 04:37:58;;;;;;;15.63;6.47;;;;;;;;;;5029646;28;20113;-65
2022/08/04 04:40:24;;;;;;;12.75;5.95;;;;;;;;;;5029678;28;20051;-64
2022/08/04 04:42:53;;;;;;;12.02;5.65;;;;;;;;;;5029429;28;20491;-65
2022/08/04 04:45:26;;;;;;;11.75;6.25;;;;;;;;;;5030315;28;20039;-65
2022/08/04 04:47:52;;;;;;;12.60;5.68;;;;;;;;;;5025193;28;20510;-65
2022/08/04 04:50:33;;;;;;;11.40;5.80;;;;;;;;;;5029150;28;20116;-65
2022/08/04 04:53:06;;;;;;;14.00;5.72;;;;;;;;;;5029872;28;20041;-65
2022/08/04 04:55:43;;;;;;;11.45;5.75;;;;;;;;;;5022271;28;20171;-65
2022/08/04 04:58:12;;;;;;;12.32;6.35;;;;;;;;;;5026568;28;20075;-65
2022/08/04 05:00:49;;;;;;;12.35;5.68;;;;;;;;;;5024447;28;20037;-65
2022/08/04 05:03:18;;;;;;;12.88;5.97;;;;;;;;;;5026352;28;20124;-65
2022/08/04 05:05:57;;;;;;;12.77;5.93;;;;;;;;;;5010328;28;20399;-65
2022/08/04 05:08:34;;;;;;;12.23;6.13;;;;;;;;;;5027503;28;20045;-64
2022/08/04 05:11:06;;;;;;;12.98;5.63;;;;;;;;;;5026818;28;20034;-64
2022/08/04 05:13:35;;;;;;;11.10;6.28;;;;;;;;;;5013575;28;20057;-65
2022/08/04 05:16:15;;;;;;;11.07;5.47;;;;;;;;;;5030599;28;20077;-64
2022/08/04 05:18:44;;;;;;;11.52;5.65;;;;;;;;;;5024815;28;20041;-64
2022/08/04 05:21:26;;;;;;;10.70;5.32;;;;;;;;;;5025697;28;20042;-65
2022/08/04 05:23:55;;;;;;;14.15;5.43;;;;;;;;;;5028942;28;20121;-65
2022/08/04 05:26:23;;;;;;;12.95;5.72;;;;;;;;;;5022884;28;20041;-65
2022/08/04 05:28:54;;;;;;;11.23;4.60;;;;;;;;;;5030051;28;20030;-64
2022/08/04 05:31:22;;;;;;;15.57;5.57;;;;;;;;;;5031251;28;20392;-65
2022/08/04 05:33:52;;;;;;;11.02;5.30;;;;;;;;;;5011099;28;20404;-65
2022/08/04 05:36:20;;;;;;;13.15;6.03;;;;;;;;;;5028809;28;20034;-64
2022/08/04 05:38:49;;;;;;;11.85;5.15;;;;;;;;;;5026545;28;20395;-64
2022/08/04 05:41:15;;;;;;;11.68;5.55;;;;;;;;;;5028856;28;20067;-65
2022/08/04 05:43:43;;;;;;;10.60;5.00;;;;;;;;;;5028175;28;20037;-64
2022/08/04 05:46:10;;;;;;;14.27;5.38;;;;;;;;;;5028578;28;20434;-65
2022/08/04 05:48:36;;;;;;;10.30;5.43;;;;;;;;;;5022179;28;20034;-64
2022/08/04 05:51:03;;;;;;;11.48;5.70;;;;;;;;;;5029984;28;20034;-65
2022/08/04 05:53:30;;;;;;;11.98;5.85;;;;;;;;;;5030145;28;20072;-65
2022/08/04 05:55:56;;;;;;;12.98;5.80;;;;;;;;;;5025976;28;20045;-64
2022/08/04 05:58:22;;;;;;;13.95;5.85;;;;;;;;;;5028945;28;20042;-64
2022/08/04 06:00:49;;;;;;;13.07;5.93;;;;;;;;;;5019039;28;20049;-64
2022/08/04 06:03:16;;;;;;;11.07;5.82;;;;;;;;;;5027486;28;20033;-64
2022/08/04 06:05:42;;;;;;;12.90;5.60;;;;;;;;;;5027507;28;20083;-64
2022/08/04 06:08:08;;;;;;;12.13;5.90;;;;;;;;;;5026706;28;20104;-64
2022/08/04 06:10:36;;;;;;;17.48;6.03;;;;;;;;;;5029162;28;20033;-64
2022/08/04 06:13:05;;;;;;;10.20;6.07;;;;;;;;;;5017120;28;20506;-64
2022/08/04 06:15:32;;;;;;;11.50;6.10;;;;;;;;;;5030552;28;20047;-65
2022/08/04 06:18:02;;;;;;;13.27;5.93;;;;;;;;;;5031993;28;20043;-64
2022/08/04 06:20:31;;;;;;;12.73;6.90;;;;;;;;;;5026134;28;20077;-64
2022/08/04 06:23:02;;;;;;;10.50;6.20;;;;;;;;;;5027133;28;20065;-65
2022/08/04 06:25:30;;;;;;;12.18;6.32;;;;;;;;;;5029541;28;20076;-64
2022/08/04 06:27:57;;;;;;;12.50;6.65;;;;;;;;;;5032230;28;20041;-64
2022/08/04 06:30:26;;;;;;;14.75;6.93;;;;;;;;;;5014075;28;20053;-64
2022/08/04 06:32:55;;;;;;;15.07;7.03;;;;;;;;;;5029778;28;20503;-65
2022/08/04 06:35:22;;;;;;;13.10;7.55;;;;;;;;;;5031087;28;20042;-65
2022/08/04 06:37:50;;;;;;;13.00;7.93;;;;;;;;;;5029223;28;20118;-64
2022/08/04 06:40:17;;;;;;;15.35;7.43;;;;;;;;;;5030675;28;20128;-64
2022/08/04 06:42:44;;;;;;;14.02;7.68;;;;;;;;;;5030218;28;20053;-64
2022/08/04 06:45:10;;;;;;;11.10;7.43;;;;;;;;;;5023335;28;20034;-64
2022/08/04 06:47:40;;;;;;;14.05;7.75;;;;;;;;;;5028172;28;20079;-64
2022/08/04 06:50:07;;;;;;;11.07;7.30;;;;;;;;;;5029736;28;20030;-64
2022/08/04 06:52:33;;;;;;;15.38;7.72;;;;;;;;;;5029887;28;20116;-64
2022/08/04 06:54:59;;;;;;;14.70;7.40;;;;;;;;;;5032184;28;20037;-65
2022/08/04 06:57:27;;;;;;;14.07;7.38;;;;;;;;;;5026919;28;20037;-65
2022/08/04 06:59:55;;;;;;;16.85;7.70;;;;;;;;;;5024931;28;20041;-64
2022/08/04 07:02:23;;;;;;;15.55;7.03;;;;;;;;;;5028530;28;20045;-64
2022/08/04 07:04:49;;;;;;;12.50;6.78;;;;;;;;;;5023104;28;20037;-65
2022/08/04 07:07:16;;;;;;;16.13;7.30;;;;;;;;;;5026564;28;20040;-64
2022/08/04 07:09:42;;;;;;;13.93;7.28;;;;;;;;;;5023097;28;20041;-65
2022/08/04 07:12:08;;;;;;;12.13;7.03;;;;;;;;;;5025285;28;20038;-64
2022/08/04 07:14:35;;;;;;;11.35;7.43;;;;;;;;;;5030644;28;20120;-65
2022/08/04 07:17:05;;;;;;;10.98;7.53;;;;;;;;;;5030747;28;20128;-64
2022/08/04 07:19:34;;;;;;;11.80;7.32;;;;;;;;;;5027441;28;20060;-65
2022/08/04 07:22:00;;;;;;;14.60;7.50;;;;;;;;;;5027422;28;20095;-65
2022/08/04 07:24:30;;;;;;;12.10;7.18;;;;;;;;;;5011917;28;20487;-65
2022/08/04 07:26:56;;;;;;;14.50;7.83;;;;;;;;;;5030461;28;20043;-65
2022/08/04 07:29:23;;;;;;;11.18;7.10;;;;;;;;;;5028490;28;20403;-65
2022/08/04 07:31:49;;;;;;;12.25;7.00;;;;;;;;;;5027111;28;20045;-65
2022/08/04 07:34:15;;;;;;;13.73;6.57;;;;;;;;;;5028602;28;20115;-65
2022/08/04 07:36:42;;;;;;;14.20;6.85;;;;;;;;;;5031547;28;20084;-65
2022/08/04 07:39:08;;;;;;;16.00;7.18;;;;;;;;;;5027033;28;20467;-65
2022/08/04 07:41:34;;;;;;;14.90;6.88;;;;;;;;;;5032052;28;20041;-66
2022/08/04 07:44:00;;;;;;;11.48;7.63;;;;;;;;;;5011201;28;20052;-66
2022/08/04 07:46:28;;;;;;;12.93;6.22;;;;;;;;;;5029605;28;20042;-65
2022/08/04 07:48:54;;;;;;;13.38;6.43;;;;;;;;;;5010219;28;20107;-65
2022/08/04 07:51:20;;;;;;;14.95;6.47;;;;;;;;;;5009811;28;20050;-65
2022/08/04 07:53:46;;;;;;;13.13;5.95;;;;;;;;;;5026341;28;20136;-65
2022/08/04 07:56:13;;;;;;;13.55;6.32;;;;;;;;;;5029717;28;20045;-65
2022/08/04 07:58:39;;;;;;;14.73;5.43;;;;;;;;;;5028035;28;20116;-65
2022/08/04 08:01:05;;;;;;;13.45;5.40;;;;;;;;;;5023356;28;20117;-65
2022/08/04 08:03:31;;;;;;;12.40;4.55;;;;;;;;;;5028318;28;20041;-65
2022/08/04 08:05:57;;;;;;;7.75;4.65;;;;;;;;;;5026299;28;20033;-66
2022/08/04 08:08:24;;;;;;;8.55;4.45;;;;;;;;;;5027129;28;20128;-65
2022/08/04 08:10:50;;;;;;;9.52;4.03;;;;;;;;;;5031251;28;20037;-66
2022/08/04 08:13:16;;;;;;;15.27;4.07;;;;;;;;;;5022937;28;21148;-65
2022/08/04 08:15:43;;;;;;;9.50;3.60;;;;;;;;;;5030459;28;20065;-65
2022/08/04 08:18:10;;;;;;;10.27;4.45;;;;;;;;;;5030840;28;20144;-65
2022/08/04 08:20:36;;;;;;;8.63;3.92;;;;;;;;;;5021697;28;20041;-66
2022/08/04 08:23:02;;;;;;;12.57;4.32;;;;;;;;;;5003584;28;20037;-65
2022/08/04 08:25:29;;;;;;;12.85;3.70;;;;;;;;;;5029009;28;20060;-65
2022/08/04 08:27:56;;;;;;;12.35;4.07;;;;;;;;;;5028368;28;20052;-65
2022/08/04 08:30:22;;;;;;;10.80;3.70;;;;;;;;;;5024873;28;20038;-65
2022/08/04 08:32:48;;;;;;;9.82;4.22;;;;;;;;;;5025072;28;20095;-65
2022/08/04 08:35:15;;;;;;;11.25;4.25;;;;;;;;;;5023766;28;20105;-66
2022/08/04 08:37:44;;;;;;;10.57;4.63;;;;;;;;;;5013317;28;20052;-66
2022/08/04 08:40:10;;;;;;;8.57;4.75;;;;;;;;;;5000714;28;20050;-66
2022/08/04 08:42:36;;;;;;;9.98;4.35;;;;;;;;;;5021625;28;20055;-66
2022/08/04 08:45:08;;;;;;;8.88;3.97;;;;;;;;;;5026006;28;20041;-66
2022/08/04 08:47:53;;;;;;;8.15;3.35;;;;;;;;;;5030148;28;20071;-66
2022/08/04 08:50:38;;;;;;;7.13;2.90;;;;;;;;;;5031854;28;20115;-66
2022/08/04 08:53:18;;;;;;;5.25;3.03;;;;;;;;;;5031938;28;20053;-66
2022/08/04 08:56:02;;;;;;;12.63;3.28;;;;;;;;;;5031999;28;20116;-66
2022/08/04 08:58:37;;;;;;;10.00;3.20;;;;;;;;;;5031701;28;20049;-66
2022/08/04 09:01:12;;;;;;;7.63;2.58;;;;;;;;;;5030841;28;20041;-66
2022/08/04 09:03:56;;;;;;;9.60;3.00;;;;;;;;;;5038110;22;20030;-64
2022/08/04 09:06:41;;;;;;;6.10;2.92;;;;;;;;;;5036938;28;20045;-64
2022/08/04 09:09:35;;;;;;;6.47;3.00;;;;;;;;;;5042101;28;20051;-64
2022/08/04 09:12:06;;;;;;;10.82;3.00;;;;;;;;;;5052277;28;20052;-61
2022/08/04 09:14:38;;;;;;;8.40;3.45;;;;;;;;;;5051405;28;20075;-62
2022/08/04 09:17:06;;;;;;;10.10;3.05;;;;;;;;;;5044646;28;20429;-61
2022/08/04 09:19:39;;;;;;;9.77;3.53;;;;;;;;;;5042534;28;20043;-61
2022/08/04 09:22:21;;;;;;;9.43;3.38;;;;;;;;;;5051547;28;20048;-61
2022/08/04 09:24:50;;;;;;;4.63;2.50;;;;;;;;;;5051367;28;20041;-61
2022/08/04 09:27:18;;;;;;;7.88;2.92;;;;;;;;;;5051197;28;20079;-61
2022/08/04 09:29:56;;;;;;;11.55;3.08;;;;;;;;;;5042217;28;20064;-62
2022/08/04 09:32:22;;;;;;;9.45;2.83;;;;;;;;;;5043235;28;20029;-61
2022/08/04 09:34:55;;;;;;;9.32;3.33;;;;;;;;;;5051220;28;20124;-62
2022/08/04 09:37:36;;;;;;;12.95;3.13;;;;;;;;;;5051611;28;20043;-61
2022/08/04 09:40:06;;;;;;;8.90;3.22;;;;;;;;;;5044570;28;20121;-62
2022/08/04 09:42:48;;;;;;;7.82;3.15;;;;;;;;;;5016027;28;20060;-62
2022/08/04 09:45:14;;;;;;;10.50;3.00;;;;;;;;;;5042753;28;20041;-61
2022/08/04 09:47:54;;;;;;;8.60;3.13;;;;;;;;;;5051499;28;20565;-61
2022/08/04 09:50:31;;;;;;;8.50;3.35;;;;;;;;;;5055016;28;20037;-61
2022/08/04 09:53:05;;;;;;;7.10;3.35;;;;;;;;;;5035288;28;20049;-62
2022/08/04 09:55:45;;;;;;;9.40;3.10;;;;;;;;;;5017397;28;20046;-62
2022/08/04 09:58:11;;;;;;;;;;;;;;;;;;5042882;28;20068;-61
2022/08/04 10:00:45;;;;;;;9.60;2.78;;;;;;;;;;5046894;28;20017;-62
2022/08/04 10:03:13;;;;;;;8.77;3.55;;;;;;;;;;5055114;28;20045;-62
2022/08/04 10:05:42;;;;;;;8.43;3.08;;;;;;;;;;5054918;28;20033;-62
2022/08/04 10:08:08;;;;;;;7.93;2.90;;;;;;;;;;5054168;28;20077;-62
2022/08/04 10:10:40;;;;;;;8.90;3.30;;;;;;;;;;5052788;28;20122;-62
2022/08/04 10:13:09;;;;;;;11.10;3.45;;;;;;;;;;5038693;28;20041;-62
2022/08/04 10:15:44;;;;;;;8.57;3.35;;;;;;;;;;5042404;28;20037;-62
2022/08/04 10:18:38;;;;;;;9.50;3.67;;;;;;;;;;5034705;28;20049;-62
2022/08/04 10:21:10;;;;;;;6.50;3.67;;;;;;;;;;5034650;28;20041;-62
2022/08/04 10:23:58;;;;;;;9.35;3.60;;;;;;;;;;5034659;28;20041;-61
2022/08/04 10:26:24;;;;;;;8.70;3.60;;;;;;;;;;5034780;28;20048;-61
2022/08/04 10:28:54;;;;;;;7.57;3.20;;;;;;;;;;5041228;28;20036;-62
2022/08/04 10:31:22;;;;;;;7.50;3.00;;;;;;;;;;5052628;28;20036;-62
2022/08/04 10:34:01;;;;;;;12.18;3.25;;;;;;;;;;5026481;28;20075;-62
2022/08/04 10:36:29;;;;;;;8.80;3.65;;;;;;;;;;5041928;28;20387;-61
2022/08/04 10:38:57;;;;;;;10.05;3.50;;;;;;;;;;5048539;28;20048;-62
2022/08/04 10:41:23;;;;;;;6.88;3.67;;;;;;;;;;5036267;28;20124;-62
2022/08/04 10:43:57;;;;;;;7.95;3.40;;;;;;;;;;5034354;28;20604;-62
2022/08/04 10:46:25;;;;;;;8.43;3.53;;;;;;;;;;5033880;28;20045;-62
2022/08/04 10:48:58;;;;;;;6.70;4.00;;;;;;;;;;5035598;28;20040;-62
2022/08/04 10:51:33;;;;;;;9.60;4.22;;;;;;;;;;5044134;28;20509;-62
2022/08/04 10:54:01;;;;;;;7.40;3.95;;;;;;;;;;5045681;28;20124;-62
2022/08/04 10:56:42;;;;;;;9.30;3.78;;;;;;;;;;5034407;28;20091;-62
2022/08/04 10:59:08;;;;;;;;;;;;;;;;;;5034170;28;20087;-62
2022/08/04 11:01:40;;;;;;;10.13;4.00;;;;;;;;;;5033565;28;19920;-62
2022/08/04 11:04:21;;;;;;;10.25;3.67;;;;;;;;;;5040620;28;20414;-62
2022/08/04 11:06:47;;;;;;;9.18;3.22;;;;;;;;;;5040986;28;20036;-63
2022/08/04 11:09:14;;;;;;;12.98;3.15;;;;;;;;;;5053491;28;20095;-63
2022/08/04 11:11:46;;;;;;;6.47;3.17;;;;;;;;;;5053726;28;20033;-63
2022/08/04 11:14:16;;;;;;;6.75;2.70;;;;;;;;;;5054038;28;20045;-63
2022/08/04 11:17:03;;;;;;;4.60;2.47;;;;;;;;;;5053828;28;20048;-63
2022/08/04 11:19:48;;;;;;;5.90;2.28;;;;;;;;;;5043501;28;20045;-63
2022/08/04 11:22:19;;;;;;;9.50;2.63;;;;;;;;;;5053649;28;20045;-63
2022/08/04 11:24:50;;;;;;;8.10;2.50;;;;;;;;;;5053366;28;20041;-63
2022/08/04 11:27:20;;;;;;;6.80;2.10;;;;;;;;;;5053387;28;20457;-63
2022/08/04 11:29:46;;;;;;;;;;;;;;;;;;5053704;28;20040;-63
2022/08/04 11:32:16;;;;;;;6.95;2.00;;;;;;;;;;5048322;28;19970;-63
2022/08/04 11:34:46;;;;;;;5.85;1.70;;;;;;;;;;5045886;28;20429;-63
2022/08/04 11:37:13;;;;;;;6.85;2.13;;;;;;;;;;5053166;28;20098;-63
2022/08/04 11:39:53;;;;;;;6.32;1.70;;;;;;;;;;5048463;28;20522;-63
2022/08/04 11:42:22;;;;;;;8.57;2.53;;;;;;;;;;5033304;28;20037;-63
2022/08/04 11:45:04;;;;;;;7.60;2.17;;;;;;;;;;5033139;28;20056;-63
2022/08/04 11:47:38;;;;;;;6.43;2.00;;;;;;;;;;5040127;28;20037;-64
2022/08/04 11:50:07;;;;;;;6.13;1.98;;;;;;;;;;5048230;28;20037;-63
2022/08/04 11:52:34;;;;;;;6.72;2.10;;;;;;;;;;5052910;28;20486;-63
2022/08/04 11:55:03;;;;;;;8.77;2.15;;;;;;;;;;5053004;28;20059;-62
2022/08/04 11:57:30;;;;;;;7.88;1.73;;;;;;;;;;5033860;28;20133;-63
2022/08/04 11:59:56;;;;;;;10.90;1.90;;;;;;;;;;5031690;28;20048;-63
2022/08/04 12:02:41;;;;;;;8.55;2.10;;;;;;;;;;5042628;28;20025;-63
2022/08/04 12:05:08;;;;;;;7.47;2.00;;;;;;;;;;5052560;28;20094;-63
2022/08/04 12:07:40;;;;;;;7.90;2.00;;;;;;;;;;5052852;28;20442;-63
2022/08/04 12:10:25;;;;;;;7.60;1.90;;;;;;;;;;5052406;28;20041;-63
2022/08/04 12:13:08;;;;;;;10.00;2.30;;;;;;;;;;5051553;28;20052;-62
2022/08/04 12:15:40;;;;;;;7.78;2.03;;;;;;;;;;5043599;28;20044;-63
2022/08/04 12:18:29;;;;;;;8.02;1.77;;;;;;;;;;5044163;28;20036;-63
2022/08/04 12:20:58;;;;;;;4.18;1.95;;;;;;;;;;5052381;28;20493;-62
2022/08/04 12:23:25;;;;;;;6.15;2.00;;;;;;;;;;5052061;28;20041;-63
2022/08/04 12:25:53;;;;;;;8.68;2.03;;;;;;;;;;5052604;28;20047;-63
2022/08/04 12:28:25;;;;;;;3.25;1.90;;;;;;;;;;5049766;28;20045;-62
2022/08/04 12:30:53;;;;;;;7.22;2.03;;;;;;;;;;5026093;28;20037;-62
2022/08/04 12:33:28;;;;;;;6.55;2.15;;;;;;;;;;5052191;28;20116;-62
2022/08/04 12:36:00;;;;;;;4.03;2.10;;;;;;;;;;5051974;28;20044;-63
2022/08/04 12:38:28;;;;;;;4.57;1.70;;;;;;;;;;5052206;28;20080;-62
2022/08/04 12:40:56;;;;;;;4.28;1.77;;;;;;;;;;5037524;28;20411;-63
2022/08/04 12:43:25;;;;;;;5.90;2.30;;;;;;;;;;5032629;28;20041;-63
2022/08/04 12:46:00;;;;;;;6.80;2.10;;;;;;;;;;5043146;28;20513;-62
2022/08/04 12:48:26;;;;;;;4.82;2.15;;;;;;;;;;5051711;28;20128;-62
2022/08/04 12:50:53;;;;;;;9.13;2.60;;;;;;;;;;5051657;28;20037;-62
2022/08/04 12:53:21;;;;;;;3.75;2.00;;;;;;;;;;5052050;28;20041;-62
2022/08/04 12:55:48;;;;;;;4.03;1.98;;;;;;;;;;5051464;28;20041;-62
2022/08/04 12:58:16;;;;;;;5.95;2.00;;;;;;;;;;5045373;28;20090;-63
2022/08/04 13:00:44;;;;;;;4.93;2.10;;;;;;;;;;5044324;28;20047;-62
2022/08/04 13:03:15;;;;;;;3.55;1.90;;;;;;;;;;5040310;28;20128;-63
2022/08/04 13:05:42;;;;;;;3.75;1.90;;;;;;;;;;5031415;28;20052;-64
2022/08/04 13:08:09;;;;;;;6.25;2.10;;;;;;;;;;5031969;28;20037;-63
2022/08/04 13:10:37;;;;;;;7.28;2.60;;;;;;;;;;5031546;28;20045;-64
2022/08/04 13:13:03;;;;;;;5.63;2.25;;;;;;;;;;5020490;28;20044;-64
2022/08/04 13:15:32;;;;;;;4.82;2.35;;;;;;;;;;5043054;28;20033;-63
2022/08/04 13:18:07;;;;;;;5.00;2.10;;;;;;;;;;5051863;28;20045;-63
2022/08/04 13:20:34;;;;;;;6.25;2.00;;;;;;;;;;5051438;28;20040;-63
2022/08/04 13:23:05;;;;;;;3.92;1.95;;;;;;;;;;5051683;28;20124;-63
2022/08/04 13:25:31;;;;;;;3.35;2.25;;;;;;;;;;5051462;28;20438;-63
2022/08/04 13:27:58;;;;;;;5.88;2.30;;;;;;;;;;5025903;28;20088;-63
2022/08/04 13:30:26;;;;;;;3.63;1.80;;;;;;;;;;5017851;28;20049;-63
2022/08/04 13:32:57;;;;;;;4.43;1.83;;;;;;;;;;5035824;28;20045;-63
2022/08/04 13:35:23;;;;;;;;;;;;;;;;;;5036149;28;20057;-63
2022/08/04 13:37:49;;;;;;;3.47;1.67;;;;;;;;;;5035493;28;19917;-63
2022/08/04 13:40:16;;;;;;;6.25;2.00;;;;;;;;;;5035119;28;20034;-63
2022/08/04 13:42:46;;;;;;;3.92;1.83;;;;;;;;;;5046791;28;20078;-63
2022/08/04 13:45:12;;;;;;;4.03;1.80;;;;;;;;;;5055597;28;20044;-63
2022/08/04 13:47:39;;;;;;;3.08;1.48;;;;;;;;;;5055447;28;20119;-63
2022/08/04 13:50:05;;;;;;;3.08;1.70;;;;;;;;;;5055116;28;20118;-63
2022/08/04 13:52:33;;;;;;;3.33;1.70;;;;;;;;;;5055293;28;20489;-63
2022/08/04 13:54:59;;;;;;;3.50;1.48;;;;;;;;;;5049645;28;20522;-63
2022/08/04 13:57:32;;;;;;;4.53;1.85;;;;;;;;;;5046648;28;20048;-63
2022/08/04 14:00:01;;;;;;;3.33;1.40;;;;;;;;;;5054800;28;20048;-63
2022/08/04 14:02:33;;;;;;;1.75;1.30;;;;;;;;;;5055175;28;20048;-63
2022/08/04 14:05:04;;;;;;;3.63;1.40;;;;;;;;;;5047850;28;20450;-63
2022/08/04 14:07:31;;;;;;;3.03;1.30;;;;;;;;;;5034907;28;20517;-63
2022/08/04 14:09:57;;;;;;;2.90;1.55;;;;;;;;;;5039971;28;20120;-63
2022/08/04 14:12:23;;;;;;;5.22;1.40;;;;;;;;;;5046643;28;20047;-63
2022/08/04 14:14:51;;;;;;;3.58;1.50;;;;;;;;;;5054895;28;20041;-63
2022/08/04 14:17:19;;;;;;;3.80;1.50;;;;;;;;;;5054835;28;20115;-63
2022/08/04 14:19:55;;;;;;;4.18;1.45;;;;;;;;;;5054362;28;20509;-63
2022/08/04 14:22:27;;;;;;;3.80;1.70;;;;;;;;;;5052623;28;20044;-63
2022/08/04 14:24:59;;;;;;;2.33;1.40;;;;;;;;;;5042886;28;20069;-63
2022/08/04 14:27:27;;;;;;;2.40;1.30;;;;;;;;;;5053262;28;20041;-63
2022/08/04 14:29:54;;;;;;;3.10;1.77;;;;;;;;;;5054344;28;20443;-63
2022/08/04 14:32:20;;;;;;;4.22;1.65;;;;;;;;;;5054457;28;20079;-62
2022/08/04 14:34:46;;;;;;;3.55;1.17;;;;;;;;;;5053647;28;20099;-63
2022/08/04 14:37:14;;;;;;;2.70;1.35;;;;;;;;;;5051154;28;20044;-63
2022/08/04 14:39:47;;;;;;;2.35;1.40;;;;;;;;;;5042010;28;20047;-63
2022/08/04 14:42:14;;;;;;;2.58;1.38;;;;;;;;;;5034323;28;20048;-63
2022/08/04 14:44:53;;;;;;;2.75;1.38;;;;;;;;;;5033834;28;20054;-63
2022/08/04 14:47:37;;;;;;;2.85;1.60;;;;;;;;;;5033669;28;20044;-63
2022/08/04 14:50:03;;;;;;;3.15;1.20;;;;;;;;;;5034131;28;20063;-63
2022/08/04 14:52:29;;;;;;;6.82;1.40;;;;;;;;;;5041654;28;20044;-63
2022/08/04 14:54:57;;;;;;;2.17;1.50;;;;;;;;;;5031121;28;20170;-63
2022/08/04 14:57:23;;;;;;;1.70;1.15;;;;;;;;;;5054054;28;20060;-62
2022/08/04 14:59:49;;;;;;;5.25;1.50;;;;;;;;;;5053576;28;20048;-63
2022/08/04 15:02:16;;;;;;;3.45;1.70;;;;;;;;;;5052944;28;20441;-63